sensor_id;sensor_type;location;lat;lon;timestamp;pressure;altitude;pressure_sealevel;temperature;humidity
55466;BME280;41329;41.594;23.810;2023-11-19T00:02:11;94872.69;;;5.68;51.59
55466;BME280;41329;41.594;23.810;2023-11-19T00:04:37;94851.22;;;5.58;51.35
55466;BME280;41329;41.594;23.810;2023-11-19T00:07:04;94877.88;;;5.85;51.01
55466;BME280;41329;41.594;23.810;2023-11-19T00:09:32;94856.63;;;5.82;51.03
55466;BME280;41329;41.594;23.810;2023-11-19T00:11:58;94871.22;;;6.02;50.75
55466;BME280;41329;41.594;23.810;2023-11-19T00:14:25;94870.44;;;6.01;50.71
55466;BME280;41329;41.594;23.810;2023-11-19T00:16:51;94862.03;;;5.94;50.65
55466;BME280;41329;41.594;23.810;2023-11-19T00:19:16;94885.16;;;6.09;50.50
55466;BME280;41329;41.594;23.810;2023-11-19T00:21:42;94887.19;;;6.12;50.41
55466;BME280;41329;41.594;23.810;2023-11-19T00:24:08;94868.69;;;6.09;50.15
55466;BME280;41329;41.594;23.810;2023-11-19T00:26:34;94863.38;;;6.16;50.21
55466;BME280;41329;41.594;23.810;2023-11-19T00:28:59;94865.03;;;6.20;50.00
55466;BME280;41329;41.594;23.810;2023-11-19T00:31:25;94848.03;;;5.99;50.03
55466;BME280;41329;41.594;23.810;2023-11-19T00:33:53;94874.16;;;6.09;49.87
55466;BME280;41329;41.594;23.810;2023-11-19T00:36:18;94850.44;;;5.85;49.89
55466;BME280;41329;41.594;23.810;2023-11-19T00:38:44;94883.03;;;6.02;50.25
55466;BME280;41329;41.594;23.810;2023-11-19T00:41:09;94896.06;;;6.05;50.07
55466;BME280;41329;41.594;23.810;2023-11-19T00:43:35;94891.69;;;5.89;50.38
55466;BME280;41329;41.594;23.810;2023-11-19T00:46:01;94896.56;;;5.95;50.29
55466;BME280;41329;41.594;23.810;2023-11-19T00:48:29;94891.81;;;5.92;50.28
55466;BME280;41329;41.594;23.810;2023-11-19T00:50:54;94887.34;;;5.88;50.29
55466;BME280;41329;41.594;23.810;2023-11-19T00:53:20;94900.94;;;5.96;50.26
55466;BME280;41329;41.594;23.810;2023-11-19T00:55:45;94890.53;;;5.90;50.23
55466;BME280;41329;41.594;23.810;2023-11-19T00:58:11;94898.00;;;6.05;49.93
55466;BME280;41329;41.594;23.810;2023-11-19T01:00:36;94893.28;;;5.90;49.88
55466;BME280;41329;41.594;23.810;2023-11-19T01:03:02;94904.09;;;5.98;49.89
55466;BME280;41329;41.594;23.810;2023-11-19T01:05:27;94904.72;;;5.92;49.99
55466;BME280;41329;41.594;23.810;2023-11-19T01:07:53;94920.56;;;5.98;49.63
55466;BME280;41329;41.594;23.810;2023-11-19T01:10:19;94919.69;;;5.94;49.79
55466;BME280;41329;41.594;23.810;2023-11-19T01:12:46;94905.59;;;5.80;49.78
55466;BME280;41329;41.594;23.810;2023-11-19T01:15:11;94932.25;;;5.95;49.64
55466;BME280;41329;41.594;23.810;2023-11-19T01:17:38;94924.28;;;5.90;49.80
55466;BME280;41329;41.594;23.810;2023-11-19T01:20:04;94937.66;;;5.92;50.15
55466;BME280;41329;41.594;23.810;2023-11-19T01:22:32;94945.44;;;5.90;50.00
55466;BME280;41329;41.594;23.810;2023-11-19T01:24:58;94907.28;;;5.57;50.17
55466;BME280;41329;41.594;23.810;2023-11-19T01:27:24;94953.63;;;5.74;50.36
55466;BME280;41329;41.594;23.810;2023-11-19T01:29:50;94949.53;;;5.68;50.70
55466;BME280;41329;41.594;23.810;2023-11-19T01:32:15;94939.84;;;5.59;50.82
55466;BME280;41329;41.594;23.810;2023-11-19T01:34:41;94969.72;;;5.48;51.18
55466;BME280;41329;41.594;23.810;2023-11-19T01:37:06;94941.78;;;5.31;51.23
55466;BME280;41329;41.594;23.810;2023-11-19T01:39:32;94957.16;;;5.47;51.30
55466;BME280;41329;41.594;23.810;2023-11-19T01:41:57;94952.25;;;5.53;51.46
55466;BME280;41329;41.594;23.810;2023-11-19T01:44:22;94945.84;;;5.49;51.64
55466;BME280;41329;41.594;23.810;2023-11-19T01:46:48;94956.69;;;5.45;51.85
55466;BME280;41329;41.594;23.810;2023-11-19T01:49:17;94954.97;;;5.53;51.72
55466;BME280;41329;41.594;23.810;2023-11-19T01:51:43;94953.81;;;5.54;51.53
55466;BME280;41329;41.594;23.810;2023-11-19T01:54:10;94955.75;;;5.53;51.73
55466;BME280;41329;41.594;23.810;2023-11-19T01:56:37;94960.00;;;5.51;51.81
55466;BME280;41329;41.594;23.810;2023-11-19T01:59:06;94952.03;;;5.46;51.92
55466;BME280;41329;41.594;23.810;2023-11-19T02:01:32;94956.88;;;5.37;52.10
55466;BME280;41329;41.594;23.810;2023-11-19T02:04:01;94968.41;;;5.42;52.04
55466;BME280;41329;41.594;23.810;2023-11-19T02:06:27;94961.28;;;5.41;52.19
55466;BME280;41329;41.594;23.810;2023-11-19T02:08:53;94953.78;;;5.38;52.41
55466;BME280;41329;41.594;23.810;2023-11-19T02:11:19;94942.34;;;5.36;52.40
55466;BME280;41329;41.594;23.810;2023-11-19T02:13:44;94927.75;;;5.20;52.70
55466;BME280;41329;41.594;23.810;2023-11-19T02:16:10;94952.31;;;5.29;52.78
55466;BME280;41329;41.594;23.810;2023-11-19T02:18:36;94932.16;;;5.09;52.87
55466;BME280;41329;41.594;23.810;2023-11-19T02:21:01;94954.09;;;5.09;53.18
55466;BME280;41329;41.594;23.810;2023-11-19T02:23:27;94957.00;;;5.16;53.46
55466;BME280;41329;41.594;23.810;2023-11-19T02:28:24;94952.91;;;5.22;53.20
55466;BME280;41329;41.594;23.810;2023-11-19T02:30:49;94945.28;;;5.16;53.29
55466;BME280;41329;41.594;23.810;2023-11-19T02:33:15;94960.66;;;5.20;53.15
55466;BME280;41329;41.594;23.810;2023-11-19T02:35:41;94942.78;;;5.11;53.40
55466;BME280;41329;41.594;23.810;2023-11-19T02:38:06;94955.56;;;5.19;53.08
55466;BME280;41329;41.594;23.810;2023-11-19T02:40:32;94941.31;;;5.01;53.23
55466;BME280;41329;41.594;23.810;2023-11-19T02:42:58;94976.34;;;5.08;53.63
55466;BME280;41329;41.594;23.810;2023-11-19T02:45:24;94984.47;;;5.04;53.68
55466;BME280;41329;41.594;23.810;2023-11-19T02:47:51;94978.19;;;5.04;53.64
55466;BME280;41329;41.594;23.810;2023-11-19T02:50:18;94959.69;;;5.01;53.65
55466;BME280;41329;41.594;23.810;2023-11-19T02:52:51;94950.91;;;4.95;54.04
55466;BME280;41329;41.594;23.810;2023-11-19T02:55:17;94948.16;;;4.95;53.91
55466;BME280;41329;41.594;23.810;2023-11-19T02:57:43;94955.69;;;4.98;54.02
55466;BME280;41329;41.594;23.810;2023-11-19T03:00:31;94946.56;;;4.94;53.82
55466;BME280;41329;41.594;23.810;2023-11-19T03:03:03;94950.22;;;4.98;53.52
55466;BME280;41329;41.594;23.810;2023-11-19T03:05:43;94936.78;;;4.69;53.94
55466;BME280;41329;41.594;23.810;2023-11-19T03:08:10;94942.38;;;4.61;54.55
55466;BME280;41329;41.594;23.810;2023-11-19T03:10:35;94967.63;;;4.66;54.73
55466;BME280;41329;41.594;23.810;2023-11-19T03:13:01;94962.91;;;4.67;54.45
55466;BME280;41329;41.594;23.810;2023-11-19T03:15:27;94945.22;;;4.40;54.47
55466;BME280;41329;41.594;23.810;2023-11-19T03:17:52;94950.03;;;4.43;54.86
55466;BME280;41329;41.594;23.810;2023-11-19T03:20:18;94960.53;;;4.53;55.15
55466;BME280;41329;41.594;23.810;2023-11-19T03:22:44;94963.06;;;4.46;55.20
55466;BME280;41329;41.594;23.810;2023-11-19T03:25:10;94897.44;;;4.02;55.60
55466;BME280;41329;41.594;23.810;2023-11-19T03:27:36;94958.94;;;4.40;55.74
55466;BME280;41329;41.594;23.810;2023-11-19T03:30:02;94961.22;;;4.38;55.78
55466;BME280;41329;41.594;23.810;2023-11-19T03:32:30;94962.78;;;4.27;55.55
55466;BME280;41329;41.594;23.810;2023-11-19T03:34:56;94954.22;;;4.17;55.51
55466;BME280;41329;41.594;23.810;2023-11-19T03:37:23;94975.22;;;4.13;55.64
55466;BME280;41329;41.594;23.810;2023-11-19T03:39:49;94966.41;;;4.07;56.20
55466;BME280;41329;41.594;23.810;2023-11-19T03:42:14;94977.94;;;4.13;56.32
55466;BME280;41329;41.594;23.810;2023-11-19T03:44:40;94982.31;;;4.14;56.44
55466;BME280;41329;41.594;23.810;2023-11-19T03:47:05;94972.94;;;4.15;56.87
55466;BME280;41329;41.594;23.810;2023-11-19T03:49:31;94983.19;;;4.18;56.68
55466;BME280;41329;41.594;23.810;2023-11-19T03:51:57;94988.88;;;4.01;56.38
55466;BME280;41329;41.594;23.810;2023-11-19T03:54:22;94994.81;;;4.03;56.24
55466;BME280;41329;41.594;23.810;2023-11-19T03:56:48;94930.19;;;3.66;56.42
55466;BME280;41329;41.594;23.810;2023-11-19T03:59:14;94988.19;;;4.04;56.69
55466;BME280;41329;41.594;23.810;2023-11-19T04:01:40;94992.41;;;4.01;57.07
55466;BME280;41329;41.594;23.810;2023-11-19T04:04:06;94996.19;;;4.09;56.89
55466;BME280;41329;41.594;23.810;2023-11-19T04:06:32;95004.63;;;4.04;57.14
55466;BME280;41329;41.594;23.810;2023-11-19T04:08:57;94995.75;;;4.07;57.00
55466;BME280;41329;41.594;23.810;2023-11-19T04:11:22;94998.59;;;4.10;56.94
55466;BME280;41329;41.594;23.810;2023-11-19T04:13:48;94991.63;;;4.13;56.76
55466;BME280;41329;41.594;23.810;2023-11-19T04:16:14;94958.19;;;3.95;56.89
55466;BME280;41329;41.594;23.810;2023-11-19T04:18:40;94985.91;;;3.94;57.27
55466;BME280;41329;41.594;23.810;2023-11-19T04:21:09;94971.63;;;3.88;57.42
55466;BME280;41329;41.594;23.810;2023-11-19T04:23:34;94989.22;;;3.99;57.17
55466;BME280;41329;41.594;23.810;2023-11-19T04:26:03;94993.56;;;4.00;57.05
55466;BME280;41329;41.594;23.810;2023-11-19T04:28:30;95007.69;;;4.02;57.20
55466;BME280;41329;41.594;23.810;2023-11-19T04:30:56;94991.47;;;3.85;57.04
55466;BME280;41329;41.594;23.810;2023-11-19T04:33:21;95007.66;;;3.90;56.83
55466;BME280;41329;41.594;23.810;2023-11-19T04:35:46;95017.34;;;3.88;57.36
55466;BME280;41329;41.594;23.810;2023-11-19T04:38:12;95019.69;;;3.77;57.76
55466;BME280;41329;41.594;23.810;2023-11-19T04:40:37;95016.28;;;3.80;58.15
55466;BME280;41329;41.594;23.810;2023-11-19T04:43:03;95003.38;;;3.69;58.51
55466;BME280;41329;41.594;23.810;2023-11-19T04:45:28;95010.44;;;3.70;58.68
55466;BME280;41329;41.594;23.810;2023-11-19T04:47:54;94981.44;;;3.57;58.50
55466;BME280;41329;41.594;23.810;2023-11-19T04:50:19;94939.19;;;3.34;58.32
55466;BME280;41329;41.594;23.810;2023-11-19T04:52:44;95003.28;;;3.77;58.10
55466;BME280;41329;41.594;23.810;2023-11-19T04:55:12;95021.88;;;3.72;58.07
55466;BME280;41329;41.594;23.810;2023-11-19T04:57:37;95015.66;;;3.63;57.89
55466;BME280;41329;41.594;23.810;2023-11-19T05:00:04;95026.94;;;3.61;58.25
55466;BME280;41329;41.594;23.810;2023-11-19T05:02:30;95023.81;;;3.51;58.19
55466;BME280;41329;41.594;23.810;2023-11-19T05:04:55;95015.78;;;3.46;58.30
55466;BME280;41329;41.594;23.810;2023-11-19T05:07:21;95039.50;;;3.62;58.54
55466;BME280;41329;41.594;23.810;2023-11-19T05:09:46;95044.97;;;3.62;58.70
55466;BME280;41329;41.594;23.810;2023-11-19T05:12:12;95055.34;;;3.69;58.99
55466;BME280;41329;41.594;23.810;2023-11-19T05:14:38;95035.59;;;3.63;58.75
55466;BME280;41329;41.594;23.810;2023-11-19T05:17:03;95052.28;;;3.70;58.46
55466;BME280;41329;41.594;23.810;2023-11-19T05:19:29;95027.41;;;3.63;58.34
55466;BME280;41329;41.594;23.810;2023-11-19T05:21:54;94999.53;;;3.49;58.05
55466;BME280;41329;41.594;23.810;2023-11-19T05:24:20;95043.94;;;3.67;58.47
55466;BME280;41329;41.594;23.810;2023-11-19T05:26:46;95039.53;;;3.54;58.53
55466;BME280;41329;41.594;23.810;2023-11-19T05:29:12;95052.34;;;3.62;58.48
55466;BME280;41329;41.594;23.810;2023-11-19T05:31:37;95022.19;;;3.50;58.36
55466;BME280;41329;41.594;23.810;2023-11-19T05:34:03;95054.88;;;3.67;58.33
55466;BME280;41329;41.594;23.810;2023-11-19T05:36:29;95057.75;;;3.70;58.42
55466;BME280;41329;41.594;23.810;2023-11-19T05:38:55;95064.00;;;3.71;58.36
55466;BME280;41329;41.594;23.810;2023-11-19T05:41:20;95066.63;;;3.67;58.67
55466;BME280;41329;41.594;23.810;2023-11-19T05:43:45;95069.84;;;3.49;58.45
55466;BME280;41329;41.594;23.810;2023-11-19T05:46:11;95075.19;;;3.45;58.95
55466;BME280;41329;41.594;23.810;2023-11-19T05:48:38;95067.84;;;3.37;59.25
55466;BME280;41329;41.594;23.810;2023-11-19T05:51:04;95056.28;;;3.32;59.81
55466;BME280;41329;41.594;23.810;2023-11-19T05:53:31;95066.25;;;3.36;60.11
55466;BME280;41329;41.594;23.810;2023-11-19T05:55:57;95059.84;;;3.32;60.67
55466;BME280;41329;41.594;23.810;2023-11-19T05:58:24;95069.56;;;3.42;60.95
55466;BME280;41329;41.594;23.810;2023-11-19T06:00:51;95064.50;;;3.52;61.13
55466;BME280;41329;41.594;23.810;2023-11-19T06:03:17;95060.56;;;3.62;61.18
55466;BME280;41329;41.594;23.810;2023-11-19T06:05:45;95049.22;;;3.72;61.07
55466;BME280;41329;41.594;23.810;2023-11-19T06:08:11;95055.53;;;3.84;62.02
55466;BME280;41329;41.594;23.810;2023-11-19T06:10:39;95040.31;;;3.95;63.71
55466;BME280;41329;41.594;23.810;2023-11-19T06:13:04;95046.88;;;4.15;64.52
55466;BME280;41329;41.594;23.810;2023-11-19T06:15:30;95058.41;;;4.32;63.43
55466;BME280;41329;41.594;23.810;2023-11-19T06:17:58;95056.16;;;4.34;61.49
55466;BME280;41329;41.594;23.810;2023-11-19T06:20:24;95064.38;;;4.34;60.74
55466;BME280;41329;41.594;23.810;2023-11-19T06:22:50;95063.00;;;4.40;61.16
55466;BME280;41329;41.594;23.810;2023-11-19T06:25:15;95079.69;;;4.47;60.12
55466;BME280;41329;41.594;23.810;2023-11-19T06:27:42;95075.34;;;4.46;60.13
55466;BME280;41329;41.594;23.810;2023-11-19T06:30:08;95067.59;;;4.60;59.99
55466;BME280;41329;41.594;23.810;2023-11-19T06:32:34;95075.28;;;4.79;59.95
55466;BME280;41329;41.594;23.810;2023-11-19T06:34:59;95066.47;;;4.73;59.66
55466;BME280;41329;41.594;23.810;2023-11-19T06:37:25;95091.84;;;4.82;59.69
55466;BME280;41329;41.594;23.810;2023-11-19T06:39:50;95105.06;;;4.68;60.27
55466;BME280;41329;41.594;23.810;2023-11-19T06:42:15;95097.66;;;4.69;60.50
55466;BME280;41329;41.594;23.810;2023-11-19T06:44:42;95112.06;;;4.90;60.01
55466;BME280;41329;41.594;23.810;2023-11-19T06:47:07;95106.69;;;4.93;60.14
55466;BME280;41329;41.594;23.810;2023-11-19T06:49:33;95100.22;;;4.98;59.46
55466;BME280;41329;41.594;23.810;2023-11-19T06:51:58;95114.81;;;5.14;59.59
55466;BME280;41329;41.594;23.810;2023-11-19T06:54:24;95121.13;;;5.26;60.10
55466;BME280;41329;41.594;23.810;2023-11-19T06:56:49;95109.66;;;5.24;59.16
55466;BME280;41329;41.594;23.810;2023-11-19T06:59:15;95108.19;;;5.39;58.46
55466;BME280;41329;41.594;23.810;2023-11-19T07:01:40;95116.19;;;5.44;58.94
55466;BME280;41329;41.594;23.810;2023-11-19T07:04:10;95115.50;;;5.47;58.00
55466;BME280;41329;41.594;23.810;2023-11-19T07:06:36;95128.53;;;5.50;58.67
55466;BME280;41329;41.594;23.810;2023-11-19T07:09:02;95130.00;;;5.59;59.00
55466;BME280;41329;41.594;23.810;2023-11-19T07:11:40;95115.13;;;5.60;57.82
55466;BME280;41329;41.594;23.810;2023-11-19T07:14:07;95122.09;;;5.70;57.49
55466;BME280;41329;41.594;23.810;2023-11-19T07:16:34;95128.94;;;5.76;55.51
55466;BME280;41329;41.594;23.810;2023-11-19T07:19:00;95135.03;;;5.81;55.08
55466;BME280;41329;41.594;23.810;2023-11-19T07:21:26;95128.44;;;5.98;54.82
55466;BME280;41329;41.594;23.810;2023-11-19T07:23:54;95140.13;;;6.07;54.30
55466;BME280;41329;41.594;23.810;2023-11-19T07:26:19;95144.44;;;6.20;54.80
55466;BME280;41329;41.594;23.810;2023-11-19T07:28:45;95143.78;;;6.38;53.09
55466;BME280;41329;41.594;23.810;2023-11-19T07:31:10;95142.94;;;6.50;53.94
55466;BME280;41329;41.594;23.810;2023-11-19T07:33:36;95153.69;;;6.71;53.49
55466;BME280;41329;41.594;23.810;2023-11-19T07:36:01;95156.41;;;6.83;53.32
55466;BME280;41329;41.594;23.810;2023-11-19T07:38:27;95155.53;;;6.94;52.63
55466;BME280;41329;41.594;23.810;2023-11-19T07:40:52;95163.84;;;6.82;52.06
55466;BME280;41329;41.594;23.810;2023-11-19T07:43:18;95150.53;;;6.84;51.43
55466;BME280;41329;41.594;23.810;2023-11-19T07:45:43;95154.63;;;6.90;51.82
55466;BME280;41329;41.594;23.810;2023-11-19T07:48:10;95162.25;;;6.97;51.29
55466;BME280;41329;41.594;23.810;2023-11-19T07:50:36;95143.34;;;6.95;50.82
55466;BME280;41329;41.594;23.810;2023-11-19T07:53:01;95158.75;;;7.12;50.15
55466;BME280;41329;41.594;23.810;2023-11-19T07:55:29;95146.28;;;6.87;50.45
55466;BME280;41329;41.594;23.810;2023-11-19T07:57:56;95146.75;;;7.04;51.13
55466;BME280;41329;41.594;23.810;2023-11-19T08:00:21;95147.38;;;7.13;50.11
55466;BME280;41329;41.594;23.810;2023-11-19T08:02:47;95153.88;;;7.21;50.09
55466;BME280;41329;41.594;23.810;2023-11-19T08:05:12;95149.50;;;7.35;50.75
55466;BME280;41329;41.594;23.810;2023-11-19T08:07:38;95149.84;;;7.49;49.89
55466;BME280;41329;41.594;23.810;2023-11-19T08:10:04;95149.34;;;7.44;48.92
55466;BME280;41329;41.594;23.810;2023-11-19T08:12:30;95159.63;;;7.31;48.68
55466;BME280;41329;41.594;23.810;2023-11-19T08:14:56;95108.25;;;7.04;49.30
55466;BME280;41329;41.594;23.810;2023-11-19T08:17:23;95152.53;;;7.46;50.43
55466;BME280;41329;41.594;23.810;2023-11-19T08:19:50;95161.13;;;7.75;49.45
55466;BME280;41329;41.594;23.810;2023-11-19T08:22:16;95153.81;;;7.83;48.76
55466;BME280;41329;41.594;23.810;2023-11-19T08:24:42;95176.50;;;8.11;49.23
55466;BME280;41329;41.594;23.810;2023-11-19T08:27:08;95169.53;;;8.32;49.23
55466;BME280;41329;41.594;23.810;2023-11-19T08:29:33;95161.41;;;8.39;46.91
55466;BME280;41329;41.594;23.810;2023-11-19T08:32:00;95126.66;;;8.35;47.61
55466;BME280;41329;41.594;23.810;2023-11-19T08:34:27;95153.63;;;8.64;47.55
55466;BME280;41329;41.594;23.810;2023-11-19T08:36:52;95145.22;;;8.76;47.69
55466;BME280;41329;41.594;23.810;2023-11-19T08:39:21;95165.44;;;9.02;46.46
55466;BME280;41329;41.594;23.810;2023-11-19T08:41:47;95164.94;;;8.97;45.17
55466;BME280;41329;41.594;23.810;2023-11-19T08:44:13;95173.66;;;8.80;44.85
55466;BME280;41329;41.594;23.810;2023-11-19T08:46:39;95178.03;;;8.81;46.98
55466;BME280;41329;41.594;23.810;2023-11-19T08:49:05;95173.63;;;8.99;45.98
55466;BME280;41329;41.594;23.810;2023-11-19T08:51:33;95173.94;;;8.94;44.62
55466;BME280;41329;41.594;23.810;2023-11-19T08:53:59;95186.81;;;9.05;45.47
55466;BME280;41329;41.594;23.810;2023-11-19T08:56:25;95188.50;;;9.13;47.08
55466;BME280;41329;41.594;23.810;2023-11-19T08:58:50;95179.94;;;9.41;46.35
55466;BME280;41329;41.594;23.810;2023-11-19T09:01:16;95165.09;;;9.49;45.24
55466;BME280;41329;41.594;23.810;2023-11-19T09:03:41;95162.59;;;9.63;46.07
55466;BME280;41329;41.594;23.810;2023-11-19T09:06:07;95174.22;;;9.75;44.52
55466;BME280;41329;41.594;23.810;2023-11-19T09:08:32;95167.66;;;9.38;42.70
55466;BME280;41329;41.594;23.810;2023-11-19T09:10:58;95163.63;;;9.32;44.38
55466;BME280;41329;41.594;23.810;2023-11-19T09:13:23;95164.69;;;9.47;44.70
55466;BME280;41329;41.594;23.810;2023-11-19T09:15:48;95106.63;;;9.43;45.34
55466;BME280;41329;41.594;23.810;2023-11-19T09:18:14;95164.31;;;9.97;44.35
55466;BME280;41329;41.594;23.810;2023-11-19T09:20:39;95162.81;;;10.03;44.06
55466;BME280;41329;41.594;23.810;2023-11-19T09:23:05;95163.91;;;10.21;44.61
55466;BME280;41329;41.594;23.810;2023-11-19T09:25:31;95156.16;;;10.30;45.10
55466;BME280;41329;41.594;23.810;2023-11-19T09:27:57;95164.88;;;10.61;44.00
55466;BME280;41329;41.594;23.810;2023-11-19T09:30:22;95159.84;;;10.70;42.19
55466;BME280;41329;41.594;23.810;2023-11-19T09:32:48;95159.50;;;10.75;43.04
55466;BME280;41329;41.594;23.810;2023-11-19T09:35:13;95159.66;;;10.89;43.27
55466;BME280;41329;41.594;23.810;2023-11-19T09:37:40;95146.84;;;11.07;43.18
55466;BME280;41329;41.594;23.810;2023-11-19T09:40:06;95121.47;;;11.02;41.25
55466;BME280;41329;41.594;23.810;2023-11-19T09:42:42;95149.13;;;10.98;40.12
55466;BME280;41329;41.594;23.810;2023-11-19T09:45:13;95152.00;;;11.09;42.25
55466;BME280;41329;41.594;23.810;2023-11-19T09:47:40;95153.31;;;11.22;42.63
55466;BME280;41329;41.594;23.810;2023-11-19T09:50:07;95149.03;;;11.28;41.95
55466;BME280;41329;41.594;23.810;2023-11-19T09:52:33;95146.44;;;11.45;40.67
55466;BME280;41329;41.594;23.810;2023-11-19T09:54:58;95138.97;;;11.13;40.17
55466;BME280;41329;41.594;23.810;2023-11-19T09:57:24;95150.28;;;10.97;40.78
55466;BME280;41329;41.594;23.810;2023-11-19T09:59:50;95146.75;;;11.00;42.49
55466;BME280;41329;41.594;23.810;2023-11-19T10:02:16;95119.47;;;11.02;41.15
55466;BME280;41329;41.594;23.810;2023-11-19T10:04:43;95164.63;;;11.46;43.10
55466;BME280;41329;41.594;23.810;2023-11-19T10:07:10;95168.09;;;11.73;41.27
55466;BME280;41329;41.594;23.810;2023-11-19T10:09:35;95135.69;;;11.80;42.19
55466;BME280;41329;41.594;23.810;2023-11-19T10:12:01;95156.50;;;12.11;40.99
55466;BME280;41329;41.594;23.810;2023-11-19T10:14:28;95143.78;;;12.06;40.43
55466;BME280;41329;41.594;23.810;2023-11-19T10:16:54;95132.69;;;12.03;39.92
55466;BME280;41329;41.594;23.810;2023-11-19T10:19:20;95128.66;;;11.97;38.44
55466;BME280;41329;41.594;23.810;2023-11-19T10:21:46;95132.09;;;11.76;39.57
55466;BME280;41329;41.594;23.810;2023-11-19T10:24:12;95112.22;;;11.71;38.78
55466;BME280;41329;41.594;23.810;2023-11-19T10:26:37;95114.59;;;11.69;39.01
55466;BME280;41329;41.594;23.810;2023-11-19T10:29:03;95114.19;;;11.67;38.33
55466;BME280;41329;41.594;23.810;2023-11-19T10:31:29;95119.19;;;11.51;39.82
55466;BME280;41329;41.594;23.810;2023-11-19T10:33:54;95117.41;;;11.76;40.30
55466;BME280;41329;41.594;23.810;2023-11-19T10:36:20;95107.81;;;11.63;39.27
55466;BME280;41329;41.594;23.810;2023-11-19T10:38:55;95109.50;;;11.74;38.95
55466;BME280;41329;41.594;23.810;2023-11-19T10:41:46;95098.50;;;11.85;39.45
55466;BME280;41329;41.594;23.810;2023-11-19T10:44:12;95105.41;;;12.12;39.14
55466;BME280;41329;41.594;23.810;2023-11-19T10:46:41;95103.94;;;12.32;39.27
55466;BME280;41329;41.594;23.810;2023-11-19T10:49:09;95093.38;;;12.59;40.62
55466;BME280;41329;41.594;23.810;2023-11-19T10:51:35;95093.00;;;12.64;37.85
55466;BME280;41329;41.594;23.810;2023-11-19T10:54:05;95085.47;;;12.71;37.94
55466;BME280;41329;41.594;23.810;2023-11-19T10:56:33;95089.81;;;12.62;39.03
55466;BME280;41329;41.594;23.810;2023-11-19T10:59:00;95085.13;;;12.83;39.13
55466;BME280;41329;41.594;23.810;2023-11-19T11:01:39;95091.63;;;13.15;38.57
55466;BME280;41329;41.594;23.810;2023-11-19T11:04:14;95082.50;;;13.25;38.90
55466;BME280;41329;41.594;23.810;2023-11-19T11:06:42;95092.84;;;13.49;38.41
55466;BME280;41329;41.594;23.810;2023-11-19T11:09:09;95093.66;;;13.74;39.45
55466;BME280;41329;41.594;23.810;2023-11-19T11:11:40;95067.81;;;13.77;36.97
55466;BME280;41329;41.594;23.810;2023-11-19T11:14:06;95078.13;;;14.01;37.73
55466;BME280;41329;41.594;23.810;2023-11-19T11:16:33;95077.75;;;13.82;35.60
55466;BME280;41329;41.594;23.810;2023-11-19T11:18:59;95076.19;;;13.70;36.26
55466;BME280;41329;41.594;23.810;2023-11-19T11:21:26;95077.34;;;13.66;36.57
55466;BME280;41329;41.594;23.810;2023-11-19T11:28:54;95066.25;;;13.62;35.36
55466;BME280;41329;41.594;23.810;2023-11-19T11:31:44;95061.06;;;13.82;37.43
55466;BME280;41329;41.594;23.810;2023-11-19T11:39:39;95054.28;;;13.93;35.75
55466;BME280;41329;41.594;23.810;2023-11-19T11:50:09;95040.03;;;13.56;36.82
55466;BME280;41329;41.594;23.810;2023-11-19T11:57:57;95028.91;;;13.63;36.58
55466;BME280;41329;41.594;23.810;2023-11-19T12:00:39;95031.28;;;13.47;35.28
55466;BME280;41329;41.594;23.810;2023-11-19T12:03:07;95029.69;;;13.67;35.80
55466;BME280;41329;41.594;23.810;2023-11-19T12:05:33;95027.72;;;13.71;35.05
55466;BME280;41329;41.594;23.810;2023-11-19T12:08:04;95028.09;;;13.84;35.26
55466;BME280;41329;41.594;23.810;2023-11-19T12:10:36;95014.97;;;13.84;35.26
55466;BME280;41329;41.594;23.810;2023-11-19T12:13:06;95024.13;;;13.78;35.07
55466;BME280;41329;41.594;23.810;2023-11-19T12:18:32;95023.66;;;14.14;34.49
55466;BME280;41329;41.594;23.810;2023-11-19T12:20:58;95018.13;;;14.07;34.42
55466;BME280;41329;41.594;23.810;2023-11-19T12:23:30;95011.38;;;13.98;34.16
55466;BME280;41329;41.594;23.810;2023-11-19T12:25:56;95022.91;;;13.96;34.61
55466;BME280;41329;41.594;23.810;2023-11-19T12:28:22;95018.09;;;14.14;35.09
55466;BME280;41329;41.594;23.810;2023-11-19T12:30:49;95018.88;;;14.29;35.00
55466;BME280;41329;41.594;23.810;2023-11-19T12:33:15;95019.19;;;14.52;35.03
55466;BME280;41329;41.594;23.810;2023-11-19T12:35:43;95029.09;;;14.63;35.51
55466;BME280;41329;41.594;23.810;2023-11-19T12:38:29;95024.53;;;14.97;35.32
55466;BME280;41329;41.594;23.810;2023-11-19T12:41:08;95031.38;;;14.79;34.50
55466;BME280;41329;41.594;23.810;2023-11-19T12:43:37;95020.75;;;14.56;35.26
55466;BME280;41329;41.594;23.810;2023-11-19T12:46:22;95013.88;;;14.78;36.02
55466;BME280;41329;41.594;23.810;2023-11-19T12:48:49;95011.69;;;15.10;34.30
55466;BME280;41329;41.594;23.810;2023-11-19T12:51:14;95018.94;;;14.97;35.07
55466;BME280;41329;41.594;23.810;2023-11-19T12:53:52;95018.88;;;15.08;35.04
55466;BME280;41329;41.594;23.810;2023-11-19T12:56:23;95015.47;;;15.44;34.82
55466;BME280;41329;41.594;23.810;2023-11-19T12:58:48;95015.25;;;15.72;34.11
55466;BME280;41329;41.594;23.810;2023-11-19T13:01:18;95014.78;;;15.77;32.61
55466;BME280;41329;41.594;23.810;2023-11-19T13:03:45;95017.66;;;15.67;33.15
55466;BME280;41329;41.594;23.810;2023-11-19T13:06:12;95015.25;;;15.72;32.54
55466;BME280;41329;41.594;23.810;2023-11-19T13:08:42;95018.97;;;15.52;32.67
55466;BME280;41329;41.594;23.810;2023-11-19T13:11:10;95014.13;;;15.63;31.43
55466;BME280;41329;41.594;23.810;2023-11-19T13:13:58;95014.03;;;15.73;31.69
55466;BME280;41329;41.594;23.810;2023-11-19T13:16:25;95002.31;;;15.89;31.03
55466;BME280;41329;41.594;23.810;2023-11-19T13:18:51;94999.13;;;15.90;31.50
55466;BME280;41329;41.594;23.810;2023-11-19T13:21:17;94993.38;;;16.04;30.08
55466;BME280;41329;41.594;23.810;2023-11-19T13:23:43;94987.28;;;16.16;31.75
55466;BME280;41329;41.594;23.810;2023-11-19T13:26:09;94985.88;;;15.98;30.19